Grenora, ND (58845)

9:16 PM CDT on April 25, 2017 (GMT -0500)
745 Lone Star Road | | Change Station

Elev 2448 ft 48.77 °N, 104.35 °W | Updated 7 minutes ago

Mostly Cloudy
Mostly Cloudy
34.5 °F
Feels Like 31 °F
N
4.0
Wind Variable Wind from East
Gusts 11.0 mph

Today
High -- | Low -- °F
--% Chance of Precip.
Yesterday
High -- | Low -- °F
Precip. -- in
Pressure 30.04 in
Visibility 10.0 miles
Clouds Mostly Cloudy 4100 ft
Windchill 31 °F
Dew Point 26 °F
Humidity 70%
Rainfall 0.02 in
Snow Depth Not available.
6:45 AM 9:02 PM
Waning Crescent, 0% visible
METAR KISN 260152Z AUTO 02007KT 10SM BKN041 04/M04 A2997 RMK AO2 SLP171 T00391039
Pressure 30.04 in
Visibility 10.0 miles
Clouds Mostly Cloudy 4100 ft
Windchill 31 °F
Dew Point 26 °F
Humidity 70%
Rainfall 0.02 in
Snow Depth Not available.
6:45 AM 9:02 PM
Waning Crescent, 0% visible
METAR KISN 260152Z AUTO 02007KT 10SM BKN041 04/M04 A2997 RMK AO2 SLP171 T00391039

Get Severe Weather Alerts

Thanks for signing up!

Be on the lookout for a verification email in your inbox.

You'll start receiving the daily forecast at 8 AM.

×

10-Day Weather Forecast

Almanac

Astronomy

Apr. 25, 2017 Rise Set
Actual Time
Civil Twilight
Nautical Twilight
Astronomical Twilight
Moon
Length of Visible Light
Length of Day
Tomorrow will be .
, % of the Moon is Illuminated

Today's Extremes

State Highs State Lows

Community

WunderPhotos

WunderBlog® & News

Nearby

Air Quality

  Air Quality AQ Index Pollutant
Not available.

Snow Depth

Station Depth Elevation

Earthquake Activity

City Distance Mag. Time & Date
Minimum magnitude displayed is 2.5.

Coastal Water Temperatures

Place Temperature

Stations

Nearby Weather Stations

Station Location Temp. Windchill Dew Point Humidity Wind Precip. Elev Updated Type
                   

Watches & Warnings

There are currently no watches in effect.